createdAt,value
2018-05-31T00:00:00.536Z,40.42
2018-05-31T00:02:33.543Z,40.00
2018-05-31T00:05:06.473Z,40.15
2018-05-31T00:07:39.630Z,38.35
2018-05-31T00:10:11.054Z,40.90
2018-05-31T00:12:43.977Z,37.08
2018-05-31T00:15:18.758Z,39.15
2018-05-31T00:17:50.348Z,34.40
2018-05-31T00:20:21.844Z,37.20
2018-05-31T00:22:56.784Z,38.00
2018-05-31T00:25:26.968Z,38.13
2018-05-31T00:27:58.959Z,39.83
2018-05-31T00:30:31.762Z,35.72
2018-05-31T00:33:05.040Z,36.85
2018-05-31T00:35:37.612Z,38.80
2018-05-31T00:38:10.788Z,37.83
2018-05-31T00:40:40.916Z,37.33
2018-05-31T00:43:12.405Z,36.42
2018-05-31T00:45:43.897Z,40.67
2018-05-31T00:48:15.613Z,37.38
2018-05-31T00:50:50.466Z,37.30
2018-05-31T00:53:24.963Z,39.97
2018-05-31T00:56:21.468Z,37.20
2018-05-31T00:58:56.328Z,42.33
2018-05-31T01:01:27.818Z,41.35
2018-05-31T01:04:00.966Z,35.75
2018-05-31T01:06:33.071Z,39.67
2018-05-31T01:09:04.916Z,33.83
2018-05-31T01:11:38.009Z,36.80
2018-05-31T01:14:09.627Z,43.28
2018-05-31T01:16:42.610Z,36.88
2018-05-31T01:19:15.570Z,41.70
2018-05-31T01:21:48.829Z,44.92
2018-05-31T01:24:21.759Z,44.33
2018-05-31T01:26:54.968Z,40.78
2018-05-31T01:29:29.671Z,41.85
2018-05-31T01:32:02.617Z,41.75
2018-05-31T01:34:34.997Z,41.17
2018-05-31T01:37:08.308Z,40.92
2018-05-31T01:39:38.854Z,41.03
2018-05-31T01:42:08.644Z,39.97
2018-05-31T01:44:43.035Z,43.50
2018-05-31T01:47:16.017Z,40.40
2018-05-31T01:49:47.638Z,37.20
2018-05-31T01:52:20.535Z,35.42
2018-05-31T01:54:53.598Z,36.58
2018-05-31T01:57:25.246Z,37.95
2018-05-31T01:59:58.504Z,34.67
2018-05-31T02:02:29.194Z,37.05
2018-05-31T02:05:02.017Z,34.53
2018-05-31T02:07:34.231Z,36.70
2018-05-31T02:10:07.496Z,44.30
2018-05-31T02:12:41.069Z,31.23
2018-05-31T02:15:12.793Z,42.15
2018-05-31T02:17:44.234Z,37.42
2018-05-31T02:20:16.660Z,34.08
2018-05-31T02:22:49.671Z,35.40
2018-05-31T02:25:22.319Z,35.33
2018-05-31T02:27:55.333Z,34.65
2018-05-31T02:30:29.927Z,38.83
2018-05-31T02:33:04.426Z,39.55
2018-05-31T02:35:36.128Z,39.08
2018-05-31T02:38:09.087Z,32.47
2018-05-31T02:40:40.603Z,38.13
2018-05-31T02:43:10.716Z,37.67
2018-05-31T02:45:42.701Z,34.25
2018-05-31T02:48:15.542Z,33.70
2018-05-31T02:50:45.705Z,33.38
2018-05-31T02:53:20.384Z,35.28
2018-05-31T02:55:51.384Z,30.12
2018-05-31T02:58:23.591Z,31.85
2018-05-31T03:00:55.329Z,28.87
2018-05-31T03:03:27.123Z,30.23
2018-05-31T03:05:56.899Z,30.37
2018-05-31T03:08:29.502Z,26.73
2018-05-31T03:11:02.699Z,26.87
2018-05-31T03:13:35.079Z,27.75
2018-05-31T03:16:07.558Z,25.70
2018-05-31T03:18:40.549Z,26.02
2018-05-31T03:21:15.087Z,26.33
2018-05-31T03:23:46.843Z,27.15
2018-05-31T03:26:20.339Z,31.92
2018-05-31T03:28:55.210Z,41.20
2018-05-31T03:31:28.415Z,37.80
2018-05-31T03:34:00.031Z,44.47
2018-05-31T03:36:33.315Z,35.05
2018-05-31T03:39:06.378Z,37.05
2018-05-31T03:41:39.284Z,36.78
2018-05-31T03:44:11.636Z,30.85
2018-05-31T03:46:44.743Z,32.45
2018-05-31T03:49:19.538Z,43.87
2018-05-31T03:51:51.185Z,44.45
2018-05-31T03:54:22.648Z,36.83
2018-05-31T03:56:54.318Z,33.17
2018-05-31T03:59:27.853Z,36.50
2018-05-31T04:01:58.847Z,34.78
2018-05-31T04:04:30.274Z,30.73
2018-05-31T04:07:03.506Z,26.98
2018-05-31T04:09:35.077Z,31.10
2018-05-31T04:12:08.379Z,33.38
2018-05-31T04:14:41.740Z,34.83
2018-05-31T04:17:14.857Z,33.10
2018-05-31T04:19:46.400Z,33.95
2018-05-31T04:22:20.780Z,32.70
2018-05-31T04:24:51.835Z,30.15
2018-05-31T04:27:25.125Z,32.03
2018-05-31T04:29:55.154Z,31.77
2018-05-31T04:32:29.822Z,28.27
2018-05-31T04:35:03.241Z,28.38
2018-05-31T04:37:35.239Z,37.25
2018-05-31T04:40:06.871Z,41.47
2018-05-31T04:42:39.932Z,39.63
2018-05-31T04:45:11.429Z,41.37
2018-05-31T04:47:42.877Z,43.08
2018-05-31T04:50:16.463Z,43.72
2018-05-31T04:52:47.915Z,47.50
2018-05-31T04:55:19.355Z,55.90
2018-05-31T04:57:49.640Z,52.90
2018-05-31T05:00:22.821Z,51.15
2018-05-31T05:02:54.524Z,51.92
2018-05-31T05:05:24.489Z,52.22
2018-05-31T05:07:56.010Z,53.72
2018-05-31T05:10:28.304Z,53.53
2018-05-31T05:13:02.736Z,65.20
2018-05-31T05:15:33.254Z,54.28
2018-05-31T05:18:06.615Z,49.13
2018-05-31T05:20:36.668Z,45.40
2018-05-31T05:23:08.497Z,47.17
2018-05-31T05:25:40.862Z,47.30
2018-05-31T05:28:13.784Z,43.28
2018-05-31T05:30:45.209Z,42.72
2018-05-31T05:33:15.270Z,42.05
2018-05-31T05:35:48.682Z,42.92
2018-05-31T05:38:23.266Z,40.75
2018-05-31T05:40:58.175Z,41.75
2018-05-31T05:43:30.052Z,41.80
2018-05-31T05:46:01.511Z,44.55
2018-05-31T05:48:34.809Z,42.92
2018-05-31T05:51:04.466Z,41.47
2018-05-31T05:53:35.872Z,39.42
2018-05-31T05:56:08.055Z,39.58
2018-05-31T05:58:39.577Z,38.10
2018-05-31T06:01:12.975Z,39.72
2018-05-31T06:03:44.874Z,40.53
2018-05-31T06:06:16.303Z,38.72
2018-05-31T06:08:49.066Z,37.67
2018-05-31T06:11:23.364Z,39.40
2018-05-31T06:13:54.813Z,39.03
2018-05-31T06:16:26.266Z,38.72
2018-05-31T06:18:57.624Z,36.58
2018-05-31T06:21:28.879Z,36.90
2018-05-31T06:23:58.775Z,38.40
2018-05-31T06:26:31.885Z,38.63
2018-05-31T06:29:03.353Z,38.42
2018-05-31T06:31:34.693Z,38.08
2018-05-31T06:34:06.057Z,37.53
2018-05-31T06:36:38.267Z,36.65
2018-05-31T06:39:09.546Z,37.47
2018-05-31T06:41:43.854Z,36.15
2018-05-31T06:44:14.162Z,37.10
2018-05-31T06:46:47.110Z,34.50
2018-05-31T06:49:18.481Z,35.35
2018-05-31T06:51:50.053Z,34.88
2018-05-31T06:54:21.427Z,36.97
2018-05-31T06:56:54.346Z,34.38
2018-05-31T06:59:27.511Z,35.38
2018-05-31T07:02:00.322Z,36.55
2018-05-31T07:04:33.124Z,36.60
2018-05-31T07:07:04.589Z,36.85
2018-05-31T07:09:35.990Z,34.42
2018-05-31T07:12:07.881Z,34.83
2018-05-31T07:14:40.633Z,35.60
2018-05-31T07:17:13.446Z,36.20
2018-05-31T07:19:46.254Z,36.72
2018-05-31T07:22:15.568Z,35.05
2018-05-31T07:24:50.244Z,33.88
2018-05-31T07:27:20.111Z,33.22
2018-05-31T07:29:52.907Z,33.38
2018-05-31T07:32:24.329Z,35.67
2018-05-31T07:34:55.692Z,35.50
2018-05-31T07:37:28.576Z,33.60
2018-05-31T07:39:58.388Z,34.28
2018-05-31T07:42:29.868Z,35.85
2018-05-31T07:44:59.748Z,35.40
2018-05-31T07:47:32.563Z,35.33
2018-05-31T07:50:05.321Z,36.65
2018-05-31T07:52:37.266Z,33.13
2018-05-31T07:55:06.892Z,35.58
2018-05-31T07:57:38.217Z,35.80
2018-05-31T08:00:10.850Z,36.28
2018-05-31T08:02:42.239Z,37.53
2018-05-31T08:05:15.612Z,36.35
2018-05-31T08:07:47.493Z,37.03
2018-05-31T08:10:17.330Z,37.72
2018-05-31T08:12:48.781Z,39.13
2018-05-31T08:15:20.484Z,40.15
2018-05-31T08:17:53.328Z,42.53
2018-05-31T08:20:27.782Z,42.60
2018-05-31T08:22:59.167Z,45.35
2018-05-31T08:25:32.562Z,43.92
2018-05-31T08:28:07.017Z,42.83
2018-05-31T08:30:39.149Z,49.03
2018-05-31T08:33:10.524Z,41.92
2018-05-31T08:35:42.596Z,40.65
2018-05-31T08:38:14.026Z,43.30
2018-05-31T08:40:44.942Z,40.28
2018-05-31T08:43:17.844Z,42.03
2018-05-31T08:45:50.714Z,41.17
2018-05-31T08:48:20.650Z,41.80
2018-05-31T08:50:55.079Z,46.63
2018-05-31T08:53:26.696Z,44.95
2018-05-31T08:56:01.225Z,40.97
2018-05-31T08:58:34.290Z,39.42
2018-05-31T09:01:07.426Z,43.70
2018-05-31T09:03:41.315Z,45.58
2018-05-31T09:06:12.792Z,45.50
2018-05-31T09:08:44.191Z,44.53
2018-05-31T09:11:16.041Z,38.88
2018-05-31T09:13:48.938Z,37.10
2018-05-31T09:16:20.203Z,34.92
2018-05-31T09:18:51.551Z,28.23
2018-05-31T09:21:22.967Z,26.50
2018-05-31T09:23:54.564Z,17.10
2018-05-31T09:26:27.486Z,15.18
2018-05-31T09:28:57.608Z,13.38
2018-05-31T09:31:28.549Z,13.88
2018-05-31T09:34:00.083Z,13.25
2018-05-31T09:36:33.114Z,14.05
2018-05-31T09:39:06.595Z,11.85
2018-05-31T09:41:38.150Z,11.35
2018-05-31T09:44:11.024Z,11.57
2018-05-31T09:46:44.818Z,11.57
2018-05-31T09:49:18.478Z,10.32
2018-05-31T09:51:49.911Z,10.18
2018-05-31T09:54:20.134Z,8.88
2018-05-31T09:56:51.519Z,7.60
2018-05-31T09:59:21.438Z,6.65
2018-05-31T10:01:54.371Z,6.65
2018-05-31T10:04:25.846Z,6.90
2018-05-31T10:06:58.740Z,7.03
2018-05-31T10:09:32.068Z,6.18
2018-05-31T10:12:03.471Z,6.57
2018-05-31T10:14:35.511Z,4.43
2018-05-31T10:17:05.556Z,4.32
2018-05-31T10:19:39.853Z,5.57
2018-05-31T10:22:12.853Z,5.40
2018-05-31T10:24:44.636Z,4.18
2018-05-31T10:27:17.577Z,3.45
2018-05-31T10:29:47.702Z,3.25
2018-05-31T10:32:22.249Z,3.40
2018-05-31T10:34:56.837Z,3.12
2018-05-31T10:37:28.316Z,2.85
2018-05-31T10:40:00.007Z,3.20
2018-05-31T10:42:34.400Z,3.72
2018-05-31T10:45:07.325Z,3.10
2018-05-31T10:47:41.355Z,3.42
2018-05-31T10:50:14.448Z,3.20
2018-05-31T10:52:47.626Z,3.10
2018-05-31T10:55:19.052Z,4.30
2018-05-31T10:57:52.653Z,3.72
2018-05-31T11:00:27.301Z,3.67
2018-05-31T11:02:58.756Z,4.62
2018-05-31T11:05:30.999Z,4.80
2018-05-31T11:08:02.461Z,5.82
2018-05-31T11:10:35.358Z,5.18
2018-05-31T11:13:06.795Z,5.30
2018-05-31T11:15:39.667Z,4.62
2018-05-31T11:18:12.372Z,5.00
2018-05-31T11:20:43.722Z,5.20
2018-05-31T11:23:16.941Z,4.60
2018-05-31T11:25:48.725Z,5.47
2018-05-31T11:28:22.032Z,4.97
2018-05-31T11:30:54.949Z,6.18
2018-05-31T11:33:26.308Z,6.05
2018-05-31T11:35:57.797Z,6.43
2018-05-31T11:38:31.002Z,6.35
2018-05-31T11:41:02.397Z,6.30
2018-05-31T11:43:36.266Z,6.80
2018-05-31T11:46:06.194Z,7.70
2018-05-31T11:48:39.226Z,6.68
2018-05-31T11:51:10.729Z,6.80
2018-05-31T11:53:45.281Z,7.47
2018-05-31T11:56:18.047Z,6.57
2018-05-31T11:58:51.027Z,6.93
2018-05-31T12:01:22.803Z,6.95
2018-05-31T12:03:55.890Z,6.85
2018-05-31T12:06:26.075Z,6.80
2018-05-31T12:08:59.079Z,6.62
2018-05-31T12:11:32.959Z,6.05
2018-05-31T12:14:04.472Z,5.75
2018-05-31T12:16:37.867Z,5.53
2018-05-31T12:19:10.907Z,4.40
2018-05-31T12:21:45.306Z,4.55
2018-05-31T12:24:17.151Z,5.18
2018-05-31T12:26:51.635Z,5.50
2018-05-31T12:29:23.386Z,6.30
2018-05-31T12:31:54.926Z,8.13
2018-05-31T12:34:26.826Z,7.47
2018-05-31T12:36:58.268Z,7.30
2018-05-31T12:39:29.618Z,7.55
2018-05-31T12:42:02.635Z,7.78
2018-05-31T12:44:35.823Z,7.68
2018-05-31T12:47:07.393Z,7.75
2018-05-31T12:49:39.294Z,6.35
2018-05-31T12:52:13.515Z,6.97
2018-05-31T12:54:46.326Z,7.68
2018-05-31T12:57:19.239Z,7.60
2018-05-31T12:59:53.496Z,7.22
2018-05-31T13:02:26.339Z,6.95
2018-05-31T13:04:57.757Z,7.53
2018-05-31T13:07:31.578Z,7.43
2018-05-31T13:10:03.056Z,7.87
2018-05-31T13:12:33.017Z,7.72
2018-05-31T13:15:03.019Z,8.25
2018-05-31T13:17:34.410Z,8.98
2018-05-31T13:20:04.361Z,8.35
2018-05-31T13:22:35.811Z,9.00
2018-05-31T13:25:10.242Z,9.40
2018-05-31T13:27:41.711Z,10.10
2018-05-31T13:30:13.259Z,9.15
2018-05-31T13:32:44.692Z,9.93
2018-05-31T13:35:18.065Z,8.70
2018-05-31T13:37:48.623Z,8.63
2018-05-31T13:40:18.551Z,9.10
2018-05-31T13:42:48.996Z,7.47
2018-05-31T13:45:21.039Z,8.50
2018-05-31T13:47:52.416Z,8.82
2018-05-31T13:50:23.145Z,9.73
2018-05-31T13:52:53.044Z,7.60
2018-05-31T13:55:24.489Z,7.78
2018-05-31T13:57:57.313Z,8.73
2018-05-31T14:00:30.311Z,8.90
2018-05-31T14:03:01.679Z,8.82
2018-05-31T14:05:34.815Z,8.48
2018-05-31T14:08:08.700Z,8.00
2018-05-31T14:10:41.576Z,8.00
2018-05-31T14:13:12.931Z,7.70
2018-05-31T14:15:47.592Z,7.47
2018-05-31T14:18:17.458Z,7.62
2018-05-31T14:20:50.727Z,8.55
2018-05-31T14:23:23.654Z,7.28
2018-05-31T14:25:53.466Z,7.80
2018-05-31T14:28:26.293Z,7.10
2018-05-31T14:30:57.701Z,7.20
2018-05-31T14:33:30.488Z,6.90
2018-05-31T14:36:02.010Z,7.10
2018-05-31T14:38:33.985Z,6.70
2018-05-31T14:41:07.462Z,7.28
2018-05-31T14:43:39.162Z,7.82
2018-05-31T14:46:10.541Z,8.75
2018-05-31T14:48:43.420Z,9.13
2018-05-31T14:51:17.764Z,8.73
2018-05-31T14:53:50.797Z,9.50
2018-05-31T14:56:23.688Z,10.73
2018-05-31T14:58:55.039Z,11.43
2018-05-31T15:01:28.613Z,10.93
2018-05-31T15:03:59.897Z,14.30
2018-05-31T15:06:32.742Z,13.93
2018-05-31T15:09:05.151Z,14.15
2018-05-31T15:11:37.978Z,14.13
2018-05-31T15:14:10.910Z,11.50
2018-05-31T15:16:42.963Z,7.85
2018-05-31T15:19:14.381Z,7.95
2018-05-31T15:21:46.169Z,8.48
2018-05-31T15:24:17.560Z,8.38
2018-05-31T15:26:49.060Z,9.07
2018-05-31T15:29:21.228Z,8.93
2018-05-31T15:31:52.969Z,9.30
2018-05-31T15:34:27.255Z,9.40
2018-05-31T15:36:58.638Z,9.57
2018-05-31T15:39:31.275Z,11.25
2018-05-31T15:42:04.206Z,14.00
2018-05-31T15:44:38.373Z,14.25
2018-05-31T15:47:11.215Z,14.32
2018-05-31T15:49:44.121Z,15.82
2018-05-31T15:52:17.663Z,14.45
2018-05-31T15:54:48.142Z,16.62
2018-05-31T15:57:19.871Z,15.50
2018-05-31T15:59:54.238Z,15.88
2018-05-31T16:02:27.113Z,16.83
2018-05-31T16:05:01.910Z,16.02
2018-05-31T16:07:33.408Z,17.10
2018-05-31T16:10:04.843Z,15.55
2018-05-31T16:12:37.681Z,16.00
2018-05-31T16:15:09.351Z,16.73
2018-05-31T16:17:39.278Z,17.55
2018-05-31T16:20:10.225Z,17.95
2018-05-31T16:22:44.551Z,16.87
2018-05-31T16:25:16.005Z,15.43
2018-05-31T16:27:48.991Z,16.05
2018-05-31T16:30:20.442Z,17.55
2018-05-31T16:32:51.796Z,16.73
2018-05-31T16:35:20.993Z,16.87
2018-05-31T16:37:53.944Z,18.92
2018-05-31T16:40:25.382Z,20.37
2018-05-31T16:42:59.127Z,20.73
2018-05-31T16:45:28.254Z,20.02
2018-05-31T16:48:01.142Z,16.55
2018-05-31T16:50:32.468Z,18.73
2018-05-31T16:53:05.441Z,19.35
2018-05-31T16:55:38.330Z,19.25
2018-05-31T16:58:09.791Z,18.73
2018-05-31T17:00:44.166Z,19.48
2018-05-31T17:03:14.042Z,19.95
2018-05-31T17:05:47.211Z,22.10
2018-05-31T17:08:20.133Z,22.02
2018-05-31T17:10:54.526Z,22.83
2018-05-31T17:13:26.040Z,18.65
2018-05-31T17:15:57.570Z,18.37
2018-05-31T17:18:30.587Z,18.40
2018-05-31T17:21:02.056Z,18.85
2018-05-31T17:23:34.955Z,18.83
2018-05-31T17:26:06.374Z,16.65
2018-05-31T17:28:37.664Z,17.77
2018-05-31T17:31:09.659Z,17.95
2018-05-31T17:33:39.860Z,17.52
2018-05-31T17:36:12.769Z,16.62
2018-05-31T17:38:45.626Z,17.35
2018-05-31T17:41:17.092Z,17.00
2018-05-31T17:43:51.494Z,17.55
2018-05-31T17:46:23.349Z,16.77
2018-05-31T17:48:54.774Z,18.73
2018-05-31T17:51:27.953Z,17.73
2018-05-31T17:54:00.831Z,17.33
2018-05-31T17:56:34.606Z,17.23
2018-05-31T17:59:04.506Z,17.02
2018-05-31T18:01:34.435Z,18.35
2018-05-31T18:04:05.971Z,18.40
2018-05-31T18:06:35.892Z,17.87
2018-05-31T18:09:09.940Z,18.98
2018-05-31T18:11:44.195Z,19.15
2018-05-31T18:14:17.004Z,19.23
2018-05-31T18:16:47.059Z,18.77
2018-05-31T18:19:18.511Z,18.52
2018-05-31T18:21:50.315Z,18.77
2018-05-31T18:24:22.293Z,19.85
2018-05-31T18:26:56.678Z,19.10
2018-05-31T18:29:30.214Z,19.87
2018-05-31T18:32:03.150Z,19.48
2018-05-31T18:34:37.664Z,19.02
2018-05-31T18:37:11.483Z,18.50
2018-05-31T18:39:44.316Z,20.52
2018-05-31T18:42:15.619Z,19.37
2018-05-31T18:44:47.179Z,20.10
2018-05-31T18:47:21.676Z,19.40
2018-05-31T18:49:56.093Z,19.10
2018-05-31T18:52:27.637Z,18.52
2018-05-31T18:55:00.178Z,21.00
2018-05-31T18:57:35.993Z,19.58
2018-05-31T19:00:07.471Z,19.83
2018-05-31T19:02:41.846Z,20.80
2018-05-31T19:05:13.376Z,20.50
2018-05-31T19:07:47.776Z,19.58
2018-05-31T19:10:19.159Z,19.62
2018-05-31T19:13:09.836Z,19.48
2018-05-31T19:15:41.263Z,20.70
2018-05-31T19:18:33.109Z,20.33
2018-05-31T19:21:06.057Z,19.48
2018-05-31T19:23:40.454Z,20.50
2018-05-31T19:26:13.449Z,18.80
2018-05-31T19:28:46.585Z,19.27
2018-05-31T19:31:18.248Z,20.00
2018-05-31T19:33:50.041Z,20.25
2018-05-31T19:36:40.427Z,20.00
2018-05-31T19:39:14.816Z,20.98
2018-05-31T19:41:49.267Z,20.83
2018-05-31T19:44:40.665Z,21.73
2018-05-31T19:47:13.843Z,18.70
2018-05-31T19:49:47.117Z,20.27
2018-05-31T19:52:39.087Z,19.48
2018-05-31T19:55:11.475Z,19.52
2018-05-31T19:58:00.342Z,20.48
2018-05-31T20:00:53.398Z,19.95
2018-05-31T20:03:34.431Z,18.12
2018-05-31T20:06:06.090Z,19.10
2018-05-31T20:08:35.991Z,16.87
2018-05-31T20:11:09.264Z,19.50
2018-05-31T20:13:40.943Z,20.95
2018-05-31T20:16:13.868Z,20.35
2018-05-31T20:18:47.113Z,19.30
2018-05-31T20:21:20.581Z,19.80
2018-05-31T20:23:55.056Z,19.60
2018-05-31T20:26:28.040Z,18.73
2018-05-31T20:29:01.463Z,17.55
2018-05-31T20:31:36.079Z,18.77
2018-05-31T20:34:07.748Z,19.48
2018-05-31T20:36:42.077Z,18.98
2018-05-31T20:39:15.800Z,19.52
2018-05-31T20:41:50.542Z,19.27
2018-05-31T20:44:22.058Z,18.17
2018-05-31T20:46:54.972Z,19.77
2018-05-31T20:49:26.693Z,17.73
2018-05-31T20:51:58.078Z,18.42
2018-05-31T20:54:28.853Z,18.30
2018-05-31T20:57:02.012Z,17.17
2018-05-31T20:59:33.567Z,17.48
2018-05-31T21:02:04.252Z,20.60
2018-05-31T21:04:37.505Z,18.27
2018-05-31T21:07:10.583Z,17.60
2018-05-31T21:09:44.933Z,18.17
2018-05-31T21:12:16.374Z,20.50
2018-05-31T21:14:49.248Z,18.12
2018-05-31T21:17:20.739Z,17.08
2018-05-31T21:19:50.729Z,16.95
2018-05-31T21:22:22.583Z,16.70
2018-05-31T21:24:54.005Z,15.18
2018-05-31T21:27:25.960Z,15.68
2018-05-31T21:30:00.227Z,17.48
2018-05-31T21:32:33.464Z,16.85
2018-05-31T21:35:03.665Z,21.33
2018-05-31T21:37:36.861Z,20.02
2018-05-31T21:40:11.596Z,18.12
2018-05-31T21:42:41.581Z,17.10
2018-05-31T21:45:15.981Z,18.75
2018-05-31T21:47:50.424Z,18.60
2018-05-31T21:50:21.934Z,19.23
2018-05-31T21:52:56.552Z,20.77
2018-05-31T21:55:29.415Z,18.00
2018-05-31T21:58:02.563Z,18.90
2018-05-31T22:00:54.008Z,19.73
2018-05-31T22:03:26.358Z,18.23
2018-05-31T22:05:59.356Z,18.37
2018-05-31T22:08:30.958Z,17.67
2018-05-31T22:11:03.879Z,17.92
2018-05-31T22:13:38.882Z,18.62
2018-05-31T22:16:10.662Z,20.67
2018-05-31T22:18:42.028Z,19.42
2018-05-31T22:21:16.435Z,18.70
2018-05-31T22:23:50.356Z,21.58
2018-05-31T22:26:25.081Z,24.60
2018-05-31T22:28:56.656Z,19.98
2018-05-31T22:31:31.034Z,18.48
2018-05-31T22:34:02.579Z,18.05
2018-05-31T22:36:35.815Z,17.20
2018-05-31T22:39:07.247Z,19.87
2018-05-31T22:41:40.505Z,19.37
2018-05-31T22:44:14.045Z,17.27
2018-05-31T22:46:47.143Z,17.67
2018-05-31T22:49:19.330Z,15.27
2018-05-31T22:51:52.610Z,17.90
2018-05-31T22:54:24.889Z,18.62
2018-05-31T22:56:58.300Z,18.33
2018-05-31T22:59:31.511Z,20.67
2018-05-31T23:02:03.057Z,24.98
2018-05-31T23:04:38.020Z,17.77
2018-05-31T23:07:11.022Z,21.50
2018-05-31T23:09:41.001Z,18.10
2018-05-31T23:12:13.174Z,16.08
2018-05-31T23:14:46.206Z,16.27
2018-05-31T23:17:19.138Z,24.35
2018-05-31T23:19:53.694Z,16.10
2018-05-31T23:22:23.698Z,21.17
2018-05-31T23:24:53.106Z,20.80
2018-05-31T23:27:26.241Z,32.67
2018-05-31T23:29:59.317Z,27.67
2018-05-31T23:32:29.460Z,32.47
2018-05-31T23:35:00.972Z,33.75
2018-05-31T23:37:34.185Z,32.30
2018-05-31T23:40:06.030Z,25.50
2018-05-31T23:42:39.264Z,25.23
2018-05-31T23:45:12.458Z,22.33
2018-05-31T23:47:44.430Z,21.75
2018-05-31T23:50:17.898Z,25.30
2018-05-31T23:52:51.244Z,28.67
2018-05-31T23:55:25.750Z,22.05
2018-05-31T23:58:00.265Z,22.70
